sensor_id;sensor_type;location;lat;lon;timestamp;temperature;humidity
51878;SHT31;37911;51.526;11.536;2023-02-01T00:00:39;3.48;76.49
51878;SHT31;37911;51.526;11.536;2023-02-01T00:03:43;3.63;75.47
51878;SHT31;37911;51.526;11.536;2023-02-01T00:06:49;3.62;75.42
51878;SHT31;37911;51.526;11.536;2023-02-01T00:09:52;3.56;75.89
51878;SHT31;37911;51.526;11.536;2023-02-01T00:12:55;3.65;75.04
51878;SHT31;37911;51.526;11.536;2023-02-01T00:16:03;3.59;75.37
51878;SHT31;37911;51.526;11.536;2023-02-01T00:19:09;3.52;75.82
51878;SHT31;37911;51.526;11.536;2023-02-01T00:22:15;3.52;75.89
51878;SHT31;37911;51.526;11.536;2023-02-01T00:25:19;3.59;75.12
51878;SHT31;37911;51.526;11.536;2023-02-01T00:28:22;3.59;75.52
51878;SHT31;37911;51.526;11.536;2023-02-01T00:31:26;3.55;75.70
51878;SHT31;37911;51.526;11.536;2023-02-01T00:34:29;3.51;76.11
51878;SHT31;37911;51.526;11.536;2023-02-01T00:37:35;3.45;76.21
51878;SHT31;37911;51.526;11.536;2023-02-01T00:40:38;3.46;76.40
51878;SHT31;37911;51.526;11.536;2023-02-01T00:43:42;3.45;76.61
51878;SHT31;37911;51.526;11.536;2023-02-01T00:46:45;3.40;76.95
51878;SHT31;37911;51.526;11.536;2023-02-01T00:49:49;3.42;77.21
51878;SHT31;37911;51.526;11.536;2023-02-01T00:52:55;3.42;77.33
51878;SHT31;37911;51.526;11.536;2023-02-01T00:55:59;3.42;77.33
51878;SHT31;37911;51.526;11.536;2023-02-01T00:59:03;3.48;77.25
51878;SHT31;37911;51.526;11.536;2023-02-01T01:02:06;3.51;77.34
51878;SHT31;37911;51.526;11.536;2023-02-01T01:05:11;3.43;77.60
51878;SHT31;37911;51.526;11.536;2023-02-01T01:08:16;3.40;77.58
51878;SHT31;37911;51.526;11.536;2023-02-01T01:11:22;3.38;77.85
51878;SHT31;37911;51.526;11.536;2023-02-01T01:14:26;3.34;78.07
51878;SHT31;37911;51.526;11.536;2023-02-01T01:17:31;3.32;78.23
51878;SHT31;37911;51.526;11.536;2023-02-01T01:20:36;3.36;78.17
51878;SHT31;37911;51.526;11.536;2023-02-01T01:23:43;3.29;78.32
51878;SHT31;37911;51.526;11.536;2023-02-01T01:26:46;3.19;78.69
51878;SHT31;37911;51.526;11.536;2023-02-01T01:29:49;3.15;78.84
51878;SHT31;37911;51.526;11.536;2023-02-01T01:32:53;3.16;79.02
51878;SHT31;37911;51.526;11.536;2023-02-01T01:35:56;3.11;79.20
51878;SHT31;37911;51.526;11.536;2023-02-01T01:39:02;3.16;79.24
51878;SHT31;37911;51.526;11.536;2023-02-01T01:42:05;3.14;79.36
51878;SHT31;37911;51.526;11.536;2023-02-01T01:45:19;3.14;79.47
51878;SHT31;37911;51.526;11.536;2023-02-01T01:48:25;3.12;79.50
51878;SHT31;37911;51.526;11.536;2023-02-01T01:51:31;3.12;79.51
51878;SHT31;37911;51.526;11.536;2023-02-01T01:54:41;3.09;79.56
51878;SHT31;37911;51.526;11.536;2023-02-01T01:57:50;3.05;79.56
51878;SHT31;37911;51.526;11.536;2023-02-01T02:00:54;3.16;79.19
51878;SHT31;37911;51.526;11.536;2023-02-01T02:03:59;3.19;79.06
51878;SHT31;37911;51.526;11.536;2023-02-01T02:07:05;3.18;79.20
51878;SHT31;37911;51.526;11.536;2023-02-01T02:10:15;3.22;79.07
51878;SHT31;37911;51.526;11.536;2023-02-01T02:13:19;3.24;78.91
51878;SHT31;37911;51.526;11.536;2023-02-01T02:16:52;3.26;79.06
51878;SHT31;37911;51.526;11.536;2023-02-01T02:20:20;3.19;79.49
51878;SHT31;37911;51.526;11.536;2023-02-01T02:23:46;3.21;79.81
51878;SHT31;37911;51.526;11.536;2023-02-01T02:27:07;3.25;79.82
51878;SHT31;37911;51.526;11.536;2023-02-01T02:30:45;3.35;79.64
51878;SHT31;37911;51.526;11.536;2023-02-01T02:34:06;3.32;79.92
51878;SHT31;37911;51.526;11.536;2023-02-01T02:37:16;3.38;79.83
51878;SHT31;37911;51.526;11.536;2023-02-01T02:40:27;3.39;80.25
51878;SHT31;37911;51.526;11.536;2023-02-01T02:43:33;3.43;80.13
51878;SHT31;37911;51.526;11.536;2023-02-01T02:46:52;3.42;80.34
51878;SHT31;37911;51.526;11.536;2023-02-01T02:50:17;3.39;80.42
51878;SHT31;37911;51.526;11.536;2023-02-01T02:53:38;3.39;80.08
51878;SHT31;37911;51.526;11.536;2023-02-01T02:57:01;3.38;80.04
51878;SHT31;37911;51.526;11.536;2023-02-01T03:00:20;3.32;80.19
51878;SHT31;37911;51.526;11.536;2023-02-01T03:03:37;3.29;80.44
51878;SHT31;37911;51.526;11.536;2023-02-01T03:06:56;3.34;80.14
51878;SHT31;37911;51.526;11.536;2023-02-01T03:10:03;3.35;79.94
51878;SHT31;37911;51.526;11.536;2023-02-01T03:13:11;3.38;79.81
51878;SHT31;37911;51.526;11.536;2023-02-01T03:16:19;3.31;79.83
51878;SHT31;37911;51.526;11.536;2023-02-01T03:19:29;3.28;79.93
51878;SHT31;37911;51.526;11.536;2023-02-01T03:22:38;3.29;79.95
51878;SHT31;37911;51.526;11.536;2023-02-01T03:25:43;3.32;79.96
51878;SHT31;37911;51.526;11.536;2023-02-01T03:28:50;3.28;79.97
51878;SHT31;37911;51.526;11.536;2023-02-01T03:31:55;3.32;80.02
51878;SHT31;37911;51.526;11.536;2023-02-01T03:34:58;3.43;79.71
51878;SHT31;37911;51.526;11.536;2023-02-01T03:38:13;3.42;79.79
51878;SHT31;37911;51.526;11.536;2023-02-01T03:41:19;3.46;79.62
51878;SHT31;37911;51.526;11.536;2023-02-01T03:44:30;3.66;78.84
51878;SHT31;37911;51.526;11.536;2023-02-01T03:47:37;3.70;78.61
51878;SHT31;37911;51.526;11.536;2023-02-01T03:50:46;3.65;78.63
51878;SHT31;37911;51.526;11.536;2023-02-01T03:53:55;3.70;78.53
51878;SHT31;37911;51.526;11.536;2023-02-01T03:57:05;3.67;78.54
51878;SHT31;37911;51.526;11.536;2023-02-01T04:00:16;3.76;78.26
51878;SHT31;37911;51.526;11.536;2023-02-01T04:03:19;3.76;78.25
51878;SHT31;37911;51.526;11.536;2023-02-01T04:06:25;3.79;78.12
51878;SHT31;37911;51.526;11.536;2023-02-01T04:09:36;3.80;78.19
51878;SHT31;37911;51.526;11.536;2023-02-01T04:12:40;3.79;78.40
51878;SHT31;37911;51.526;11.536;2023-02-01T04:15:43;3.77;78.56
51878;SHT31;37911;51.526;11.536;2023-02-01T04:18:47;3.83;78.20
51878;SHT31;37911;51.526;11.536;2023-02-01T04:21:50;3.85;78.22
51878;SHT31;37911;51.526;11.536;2023-02-01T04:24:56;3.82;78.09
51878;SHT31;37911;51.526;11.536;2023-02-01T04:27:59;3.85;77.79
51878;SHT31;37911;51.526;11.536;2023-02-01T04:31:03;3.91;77.64
51878;SHT31;37911;51.526;11.536;2023-02-01T04:34:07;3.86;77.59
51878;SHT31;37911;51.526;11.536;2023-02-01T04:37:10;3.87;77.71
51878;SHT31;37911;51.526;11.536;2023-02-01T04:40:16;3.80;77.81
51878;SHT31;37911;51.526;11.536;2023-02-01T04:43:19;3.79;77.91
51878;SHT31;37911;51.526;11.536;2023-02-01T04:46:23;3.80;77.74
51878;SHT31;37911;51.526;11.536;2023-02-01T04:49:26;3.76;77.92
51878;SHT31;37911;51.526;11.536;2023-02-01T04:52:29;3.75;77.91
51878;SHT31;37911;51.526;11.536;2023-02-01T04:55:35;3.69;78.05
51878;SHT31;37911;51.526;11.536;2023-02-01T04:58:38;3.75;77.77
51878;SHT31;37911;51.526;11.536;2023-02-01T05:01:41;3.66;78.12
51878;SHT31;37911;51.526;11.536;2023-02-01T05:04:45;3.59;78.36
51878;SHT31;37911;51.526;11.536;2023-02-01T05:07:48;3.49;78.68
51878;SHT31;37911;51.526;11.536;2023-02-01T05:10:54;3.55;78.52
51878;SHT31;37911;51.526;11.536;2023-02-01T05:13:57;3.54;78.62
51878;SHT31;37911;51.526;11.536;2023-02-01T05:16:58;3.51;78.70
51878;SHT31;37911;51.526;11.536;2023-02-01T05:20:01;3.39;79.19
51878;SHT31;37911;51.526;11.536;2023-02-01T05:23:05;3.36;79.29
51878;SHT31;37911;51.526;11.536;2023-02-01T05:26:11;3.45;79.27
51878;SHT31;37911;51.526;11.536;2023-02-01T05:29:18;3.43;79.27
51878;SHT31;37911;51.526;11.536;2023-02-01T05:32:21;3.43;79.35
51878;SHT31;37911;51.526;11.536;2023-02-01T05:35:25;3.49;79.27
51878;SHT31;37911;51.526;11.536;2023-02-01T05:38:28;3.46;79.60
51878;SHT31;37911;51.526;11.536;2023-02-01T05:41:34;3.56;79.33
51878;SHT31;37911;51.526;11.536;2023-02-01T05:44:37;3.72;79.18
51878;SHT31;37911;51.526;11.536;2023-02-01T05:47:40;3.75;79.45
51878;SHT31;37911;51.526;11.536;2023-02-01T05:50:44;3.77;79.68
51878;SHT31;37911;51.526;11.536;2023-02-01T05:53:47;3.69;80.01
51878;SHT31;37911;51.526;11.536;2023-02-01T05:56:53;3.73;80.10
51878;SHT31;37911;51.526;11.536;2023-02-01T05:59:56;3.75;80.16
51878;SHT31;37911;51.526;11.536;2023-02-01T06:03:00;3.76;80.03
51878;SHT31;37911;51.526;11.536;2023-02-01T06:06:03;3.79;80.11
51878;SHT31;37911;51.526;11.536;2023-02-01T06:09:07;3.72;80.44
51878;SHT31;37911;51.526;11.536;2023-02-01T06:12:13;3.72;80.29
51878;SHT31;37911;51.526;11.536;2023-02-01T06:15:16;3.70;80.39
51878;SHT31;37911;51.526;11.536;2023-02-01T06:18:19;3.75;80.23
51878;SHT31;37911;51.526;11.536;2023-02-01T06:21:23;3.75;80.13
51878;SHT31;37911;51.526;11.536;2023-02-01T06:24:26;3.72;80.14
51878;SHT31;37911;51.526;11.536;2023-02-01T06:27:32;3.73;79.96
51878;SHT31;37911;51.526;11.536;2023-02-01T06:30:36;3.75;79.78
51878;SHT31;37911;51.526;11.536;2023-02-01T06:33:41;3.75;79.56
51878;SHT31;37911;51.526;11.536;2023-02-01T06:36:46;3.72;79.73
51878;SHT31;37911;51.526;11.536;2023-02-01T06:39:49;3.67;79.77
51878;SHT31;37911;51.526;11.536;2023-02-01T06:42:55;3.76;79.44
51878;SHT31;37911;51.526;11.536;2023-02-01T06:46:00;3.72;79.80
51878;SHT31;37911;51.526;11.536;2023-02-01T06:49:03;3.70;80.26
51878;SHT31;37911;51.526;11.536;2023-02-01T06:52:06;3.75;80.38
51878;SHT31;37911;51.526;11.536;2023-02-01T06:55:10;3.67;80.96
51878;SHT31;37911;51.526;11.536;2023-02-01T06:58:16;3.67;81.12
51878;SHT31;37911;51.526;11.536;2023-02-01T07:01:20;3.70;81.13
51878;SHT31;37911;51.526;11.536;2023-02-01T07:04:23;3.62;81.17
51878;SHT31;37911;51.526;11.536;2023-02-01T07:07:26;3.58;81.55
51878;SHT31;37911;51.526;11.536;2023-02-01T07:10:30;3.69;81.48
51878;SHT31;37911;51.526;11.536;2023-02-01T07:13:36;3.67;81.55
51878;SHT31;37911;51.526;11.536;2023-02-01T07:16:40;3.69;81.67
51878;SHT31;37911;51.526;11.536;2023-02-01T07:19:43;3.73;81.68
51878;SHT31;37911;51.526;11.536;2023-02-01T07:22:46;3.80;81.60
51878;SHT31;37911;51.526;11.536;2023-02-01T07:25:53;3.79;82.02
51878;SHT31;37911;51.526;11.536;2023-02-01T07:28:59;3.77;82.45
51878;SHT31;37911;51.526;11.536;2023-02-01T07:32:03;3.77;82.29
51878;SHT31;37911;51.526;11.536;2023-02-01T07:35:07;3.75;82.63
51878;SHT31;37911;51.526;11.536;2023-02-01T07:38:10;3.82;82.81
51878;SHT31;37911;51.526;11.536;2023-02-01T07:41:14;3.86;82.72
51878;SHT31;37911;51.526;11.536;2023-02-01T07:44:20;3.89;82.85
51878;SHT31;37911;51.526;11.536;2023-02-01T07:47:23;3.83;83.56
51878;SHT31;37911;51.526;11.536;2023-02-01T07:50:27;3.80;83.62
51878;SHT31;37911;51.526;11.536;2023-02-01T07:53:32;3.83;83.70
51878;SHT31;37911;51.526;11.536;2023-02-01T07:56:35;3.77;83.81
51878;SHT31;37911;51.526;11.536;2023-02-01T07:59:41;3.79;83.91
51878;SHT31;37911;51.526;11.536;2023-02-01T08:02:58;3.76;84.12
51878;SHT31;37911;51.526;11.536;2023-02-01T08:06:01;3.69;84.70
51878;SHT31;37911;51.526;11.536;2023-02-01T08:09:06;3.58;85.30
51878;SHT31;37911;51.526;11.536;2023-02-01T08:12:11;3.55;85.76
51878;SHT31;37911;51.526;11.536;2023-02-01T08:15:17;3.48;85.60
51878;SHT31;37911;51.526;11.536;2023-02-01T08:18:20;3.34;85.55
51878;SHT31;37911;51.526;11.536;2023-02-01T08:21:25;3.22;85.92
51878;SHT31;37911;51.526;11.536;2023-02-01T08:24:36;3.12;86.21
51878;SHT31;37911;51.526;11.536;2023-02-01T08:27:41;3.07;86.59
51878;SHT31;37911;51.526;11.536;2023-02-01T08:30:47;3.09;86.90
51878;SHT31;37911;51.526;11.536;2023-02-01T08:33:52;3.11;87.10
51878;SHT31;37911;51.526;11.536;2023-02-01T08:36:55;3.18;87.29
51878;SHT31;37911;51.526;11.536;2023-02-01T08:40:02;3.21;87.44
51878;SHT31;37911;51.526;11.536;2023-02-01T08:43:06;3.25;87.47
51878;SHT31;37911;51.526;11.536;2023-02-01T08:46:12;3.31;87.35
51878;SHT31;37911;51.526;11.536;2023-02-01T08:49:15;3.32;87.51
51878;SHT31;37911;51.526;11.536;2023-02-01T08:52:18;3.38;87.50
51878;SHT31;37911;51.526;11.536;2023-02-01T08:55:21;3.42;87.44
51878;SHT31;37911;51.526;11.536;2023-02-01T08:58:25;3.48;87.28
51878;SHT31;37911;51.526;11.536;2023-02-01T09:01:31;3.60;87.05
51878;SHT31;37911;51.526;11.536;2023-02-01T09:04:35;3.76;86.81
51878;SHT31;37911;51.526;11.536;2023-02-01T09:07:38;3.90;85.98
51878;SHT31;37911;51.526;11.536;2023-02-01T09:10:42;3.99;85.92
51878;SHT31;37911;51.526;11.536;2023-02-01T09:13:46;4.01;85.03
51878;SHT31;37911;51.526;11.536;2023-02-01T09:16:52;4.44;84.23
51878;SHT31;37911;51.526;11.536;2023-02-01T09:19:56;4.86;82.83
51878;SHT31;37911;51.526;11.536;2023-02-01T09:22:59;5.25;81.36
51878;SHT31;37911;51.526;11.536;2023-02-01T09:26:04;5.50;79.82
51878;SHT31;37911;51.526;11.536;2023-02-01T09:29:08;5.35;80.22
51878;SHT31;37911;51.526;11.536;2023-02-01T09:32:16;5.36;79.61
51878;SHT31;37911;51.526;11.536;2023-02-01T09:35:20;5.12;79.52
51878;SHT31;37911;51.526;11.536;2023-02-01T09:38:23;5.13;79.66
51878;SHT31;37911;51.526;11.536;2023-02-01T09:41:35;5.66;78.18
51878;SHT31;37911;51.526;11.536;2023-02-01T09:44:52;5.67;78.25
51878;SHT31;37911;51.526;11.536;2023-02-01T09:48:04;5.44;77.73
51878;SHT31;37911;51.526;11.536;2023-02-01T09:51:14;5.39;78.29
51878;SHT31;37911;51.526;11.536;2023-02-01T09:54:21;5.43;77.82
51878;SHT31;37911;51.526;11.536;2023-02-01T09:57:31;5.60;77.07
51878;SHT31;37911;51.526;11.536;2023-02-01T10:00:38;6.11;75.76
51878;SHT31;37911;51.526;11.536;2023-02-01T10:03:44;6.43;74.55
51878;SHT31;37911;51.526;11.536;2023-02-01T10:06:58;6.65;74.32
51878;SHT31;37911;51.526;11.536;2023-02-01T10:10:09;6.35;75.68
51878;SHT31;37911;51.526;11.536;2023-02-01T10:16:47;6.55;76.65
51878;SHT31;37911;51.526;11.536;2023-02-01T10:20:04;6.52;75.48
51878;SHT31;37911;51.526;11.536;2023-02-01T10:23:20;6.62;75.01
51878;SHT31;37911;51.526;11.536;2023-02-01T10:26:31;6.92;73.33
51878;SHT31;37911;51.526;11.536;2023-02-01T10:29:37;7.06;72.83
51878;SHT31;37911;51.526;11.536;2023-02-01T10:32:42;7.16;72.09
51878;SHT31;37911;51.526;11.536;2023-02-01T10:35:53;7.07;71.53
51878;SHT31;37911;51.526;11.536;2023-02-01T10:38:57;6.99;72.01
51878;SHT31;37911;51.526;11.536;2023-02-01T10:42:00;6.59;74.38
51878;SHT31;37911;51.526;11.536;2023-02-01T10:45:05;6.42;75.98
51878;SHT31;37911;51.526;11.536;2023-02-01T10:48:09;6.18;76.28
51878;SHT31;37911;51.526;11.536;2023-02-01T10:51:17;6.10;75.63
51878;SHT31;37911;51.526;11.536;2023-02-01T10:54:32;6.05;76.11
51878;SHT31;37911;51.526;11.536;2023-02-01T10:57:38;6.18;75.83
51878;SHT31;37911;51.526;11.536;2023-02-01T11:00:44;6.55;74.81
51878;SHT31;37911;51.526;11.536;2023-02-01T11:03:52;6.76;73.13
51878;SHT31;37911;51.526;11.536;2023-02-01T11:07:08;6.63;72.78
51878;SHT31;37911;51.526;11.536;2023-02-01T11:10:35;6.73;72.31
51878;SHT31;37911;51.526;11.536;2023-02-01T11:13:39;6.75;71.94
51878;SHT31;37911;51.526;11.536;2023-02-01T11:16:47;6.73;71.97
51878;SHT31;37911;51.526;11.536;2023-02-01T11:19:57;6.86;72.80
51878;SHT31;37911;51.526;11.536;2023-02-01T11:23:03;6.93;71.79
51878;SHT31;37911;51.526;11.536;2023-02-01T11:26:11;6.87;71.48
51878;SHT31;37911;51.526;11.536;2023-02-01T11:29:17;6.86;71.62
51878;SHT31;37911;51.526;11.536;2023-02-01T11:32:24;6.92;71.78
51878;SHT31;37911;51.526;11.536;2023-02-01T11:35:28;7.06;71.50
51878;SHT31;37911;51.526;11.536;2023-02-01T11:38:35;7.17;70.30
51878;SHT31;37911;51.526;11.536;2023-02-01T11:41:43;7.35;70.30
51878;SHT31;37911;51.526;11.536;2023-02-01T11:44:47;7.55;69.06
51878;SHT31;37911;51.526;11.536;2023-02-01T11:47:52;7.82;68.04
51878;SHT31;37911;51.526;11.536;2023-02-01T11:51:04;7.92;67.50
51878;SHT31;37911;51.526;11.536;2023-02-01T11:57:52;7.95;65.82
51878;SHT31;37911;51.526;11.536;2023-02-01T12:01:09;8.03;66.21
51878;SHT31;37911;51.526;11.536;2023-02-01T12:04:37;8.07;64.34
51878;SHT31;37911;51.526;11.536;2023-02-01T12:07:53;8.09;64.71
51878;SHT31;37911;51.526;11.536;2023-02-01T12:11:19;8.13;63.84
51878;SHT31;37911;51.526;11.536;2023-02-01T12:14:32;8.23;64.20
51878;SHT31;37911;51.526;11.536;2023-02-01T12:17:59;8.14;64.14
51878;SHT31;37911;51.526;11.536;2023-02-01T12:21:22;7.86;63.27
51878;SHT31;37911;51.526;11.536;2023-02-01T12:24:47;7.65;64.98
51878;SHT31;37911;51.526;11.536;2023-02-01T12:28:17;7.48;64.85
51878;SHT31;37911;51.526;11.536;2023-02-01T12:31:48;7.31;65.73
51878;SHT31;37911;51.526;11.536;2023-02-01T12:35:21;7.27;66.02
51878;SHT31;37911;51.526;11.536;2023-02-01T12:38:38;7.01;65.20
51878;SHT31;37911;51.526;11.536;2023-02-01T12:41:49;6.86;66.35
51878;SHT31;37911;51.526;11.536;2023-02-01T12:44:59;6.75;66.14
51878;SHT31;37911;51.526;11.536;2023-02-01T12:48:18;6.65;66.40
51878;SHT31;37911;51.526;11.536;2023-02-01T12:51:28;6.61;66.04
51878;SHT31;37911;51.526;11.536;2023-02-01T12:54:36;6.62;66.22
51878;SHT31;37911;51.526;11.536;2023-02-01T12:57:42;6.59;66.23
51878;SHT31;37911;51.526;11.536;2023-02-01T13:00:55;6.56;66.60
51878;SHT31;37911;51.526;11.536;2023-02-01T13:04:05;6.52;65.88
51878;SHT31;37911;51.526;11.536;2023-02-01T13:07:16;6.55;66.59
51878;SHT31;37911;51.526;11.536;2023-02-01T13:10:27;6.52;66.40
51878;SHT31;37911;51.526;11.536;2023-02-01T13:13:39;6.49;67.22
51878;SHT31;37911;51.526;11.536;2023-02-01T13:16:49;6.38;67.37
51878;SHT31;37911;51.526;11.536;2023-02-01T13:19:57;6.32;67.40
51878;SHT31;37911;51.526;11.536;2023-02-01T13:23:03;6.31;67.38
51878;SHT31;37911;51.526;11.536;2023-02-01T13:26:07;6.24;67.52
51878;SHT31;37911;51.526;11.536;2023-02-01T13:29:12;6.28;67.38
51878;SHT31;37911;51.526;11.536;2023-02-01T13:32:29;6.26;67.25
51878;SHT31;37911;51.526;11.536;2023-02-01T13:35:45;6.28;67.56
51878;SHT31;37911;51.526;11.536;2023-02-01T13:39:19;6.25;67.46
51878;SHT31;37911;51.526;11.536;2023-02-01T13:42:27;6.43;67.05
51878;SHT31;37911;51.526;11.536;2023-02-01T13:45:35;6.68;66.56
51878;SHT31;37911;51.526;11.536;2023-02-01T13:48:48;6.85;66.31
51878;SHT31;37911;51.526;11.536;2023-02-01T13:51:54;6.90;66.00
51878;SHT31;37911;51.526;11.536;2023-02-01T13:55:13;6.87;65.74
51878;SHT31;37911;51.526;11.536;2023-02-01T13:58:20;6.79;65.84
51878;SHT31;37911;51.526;11.536;2023-02-01T14:01:44;6.68;65.83
51878;SHT31;37911;51.526;11.536;2023-02-01T14:04:51;6.56;65.97
51878;SHT31;37911;51.526;11.536;2023-02-01T14:08:10;6.49;66.47
51878;SHT31;37911;51.526;11.536;2023-02-01T14:11:33;6.42;67.14
51878;SHT31;37911;51.526;11.536;2023-02-01T14:14:40;6.38;66.78
51878;SHT31;37911;51.526;11.536;2023-02-01T14:17:43;6.32;67.43
51878;SHT31;37911;51.526;11.536;2023-02-01T14:20:49;6.29;67.79
51878;SHT31;37911;51.526;11.536;2023-02-01T14:23:59;6.24;69.19
51878;SHT31;37911;51.526;11.536;2023-02-01T14:27:17;6.10;70.61
51878;SHT31;37911;51.526;11.536;2023-02-01T14:30:23;6.00;71.60
51878;SHT31;37911;51.526;11.536;2023-02-01T14:33:27;5.84;72.14
51878;SHT31;37911;51.526;11.536;2023-02-01T14:36:45;5.74;73.91
51878;SHT31;37911;51.526;11.536;2023-02-01T14:39:56;5.54;75.13
51878;SHT31;37911;51.526;11.536;2023-02-01T14:43:01;5.32;76.74
51878;SHT31;37911;51.526;11.536;2023-02-01T14:46:06;5.26;77.48
51878;SHT31;37911;51.526;11.536;2023-02-01T14:49:09;5.23;77.24
51878;SHT31;37911;51.526;11.536;2023-02-01T14:52:17;5.23;77.49
51878;SHT31;37911;51.526;11.536;2023-02-01T14:55:36;5.16;78.26
51878;SHT31;37911;51.526;11.536;2023-02-01T14:58:42;5.12;78.01
51878;SHT31;37911;51.526;11.536;2023-02-01T15:01:50;5.08;79.17
51878;SHT31;37911;51.526;11.536;2023-02-01T15:04:56;4.96;80.17
51878;SHT31;37911;51.526;11.536;2023-02-01T15:08:05;4.79;80.67
51878;SHT31;37911;51.526;11.536;2023-02-01T15:11:15;4.76;80.87
51878;SHT31;37911;51.526;11.536;2023-02-01T15:14:18;4.71;81.35
51878;SHT31;37911;51.526;11.536;2023-02-01T15:17:24;4.73;80.96
51878;SHT31;37911;51.526;11.536;2023-02-01T15:20:29;4.76;80.93
51878;SHT31;37911;51.526;11.536;2023-02-01T15:23:36;4.82;80.93
51878;SHT31;37911;51.526;11.536;2023-02-01T15:26:39;4.78;81.35
51878;SHT31;37911;51.526;11.536;2023-02-01T15:29:43;4.76;82.27
51878;SHT31;37911;51.526;11.536;2023-02-01T15:32:47;3.77;79.88
51878;SHT31;37911;51.526;11.536;2023-02-01T15:35:52;3.09;81.20
51878;SHT31;37911;51.526;11.536;2023-02-01T15:39:13;2.79;82.69
51878;SHT31;37911;51.526;11.536;2023-02-01T15:42:18;2.71;82.99
51878;SHT31;37911;51.526;11.536;2023-02-01T15:45:25;2.54;83.61
51878;SHT31;37911;51.526;11.536;2023-02-01T15:48:34;2.47;84.27
51878;SHT31;37911;51.526;11.536;2023-02-01T15:51:44;2.41;84.57
51878;SHT31;37911;51.526;11.536;2023-02-01T15:54:51;2.34;84.77
51878;SHT31;37911;51.526;11.536;2023-02-01T15:57:55;2.33;84.99
51878;SHT31;37911;51.526;11.536;2023-02-01T16:01:01;2.34;85.18
51878;SHT31;37911;51.526;11.536;2023-02-01T16:04:16;2.34;85.30
51878;SHT31;37911;51.526;11.536;2023-02-01T16:07:26;2.34;85.16
51878;SHT31;37911;51.526;11.536;2023-02-01T16:10:39;2.39;85.09
51878;SHT31;37911;51.526;11.536;2023-02-01T16:13:42;2.43;84.87
51878;SHT31;37911;51.526;11.536;2023-02-01T16:16:45;2.47;84.64
51878;SHT31;37911;51.526;11.536;2023-02-01T16:19:49;2.56;84.62
51878;SHT31;37911;51.526;11.536;2023-02-01T16:22:53;2.63;84.56
51878;SHT31;37911;51.526;11.536;2023-02-01T16:25:58;2.61;84.41
51878;SHT31;37911;51.526;11.536;2023-02-01T16:29:02;2.67;84.21
51878;SHT31;37911;51.526;11.536;2023-02-01T16:32:11;2.70;83.90
51878;SHT31;37911;51.526;11.536;2023-02-01T16:35:22;2.70;83.80
51878;SHT31;37911;51.526;11.536;2023-02-01T16:38:26;2.77;83.57
51878;SHT31;37911;51.526;11.536;2023-02-01T16:41:32;2.83;83.20
51878;SHT31;37911;51.526;11.536;2023-02-01T16:44:36;2.88;83.04
51878;SHT31;37911;51.526;11.536;2023-02-01T16:47:44;2.92;82.53
51878;SHT31;37911;51.526;11.536;2023-02-01T16:50:50;2.95;82.65
51878;SHT31;37911;51.526;11.536;2023-02-01T16:53:54;2.94;82.47
51878;SHT31;37911;51.526;11.536;2023-02-01T16:57:00;2.90;82.88
51878;SHT31;37911;51.526;11.536;2023-02-01T17:00:04;2.90;82.75
51878;SHT31;37911;51.526;11.536;2023-02-01T17:03:09;2.88;82.77
51878;SHT31;37911;51.526;11.536;2023-02-01T17:06:19;2.85;82.63
51878;SHT31;37911;51.526;11.536;2023-02-01T17:09:22;2.91;82.27
51878;SHT31;37911;51.526;11.536;2023-02-01T17:12:30;3.02;81.78
51878;SHT31;37911;51.526;11.536;2023-02-01T17:15:34;3.09;81.39
51878;SHT31;37911;51.526;11.536;2023-02-01T17:18:37;3.14;81.25
51878;SHT31;37911;51.526;11.536;2023-02-01T17:21:43;3.11;81.35
51878;SHT31;37911;51.526;11.536;2023-02-01T17:24:49;3.12;81.24
51878;SHT31;37911;51.526;11.536;2023-02-01T17:27:55;3.21;80.62
51878;SHT31;37911;51.526;11.536;2023-02-01T17:30:58;3.29;80.11
51878;SHT31;37911;51.526;11.536;2023-02-01T17:34:01;3.31;80.02
51878;SHT31;37911;51.526;11.536;2023-02-01T17:37:05;3.35;79.78
51878;SHT31;37911;51.526;11.536;2023-02-01T17:40:10;3.28;80.31
51878;SHT31;37911;51.526;11.536;2023-02-01T17:43:19;3.26;80.35
51878;SHT31;37911;51.526;11.536;2023-02-01T17:46:23;3.29;79.94
51878;SHT31;37911;51.526;11.536;2023-02-01T17:49:27;3.34;79.88
51878;SHT31;37911;51.526;11.536;2023-02-01T17:52:31;3.35;79.72
51878;SHT31;37911;51.526;11.536;2023-02-01T17:55:39;3.35;79.69
51878;SHT31;37911;51.526;11.536;2023-02-01T17:58:45;3.36;79.50
51878;SHT31;37911;51.526;11.536;2023-02-01T18:01:49;3.39;79.20
51878;SHT31;37911;51.526;11.536;2023-02-01T18:04:52;3.38;78.99
51878;SHT31;37911;51.526;11.536;2023-02-01T18:07:56;3.38;78.72
51878;SHT31;37911;51.526;11.536;2023-02-01T18:11:01;3.42;78.13
51878;SHT31;37911;51.526;11.536;2023-02-01T18:14:09;3.40;77.95
51878;SHT31;37911;51.526;11.536;2023-02-01T18:17:13;3.38;77.97
51878;SHT31;37911;51.526;11.536;2023-02-01T18:20:18;3.42;77.88
51878;SHT31;37911;51.526;11.536;2023-02-01T18:23:23;3.38;77.87
51878;SHT31;37911;51.526;11.536;2023-02-01T18:26:26;3.42;77.79
51878;SHT31;37911;51.526;11.536;2023-02-01T18:29:32;3.43;77.87
51878;SHT31;37911;51.526;11.536;2023-02-01T18:32:35;3.36;78.17
51878;SHT31;37911;51.526;11.536;2023-02-01T18:35:39;3.38;78.25
51878;SHT31;37911;51.526;11.536;2023-02-01T18:38:42;3.39;78.31
51878;SHT31;37911;51.526;11.536;2023-02-01T18:41:47;3.36;78.86
51878;SHT31;37911;51.526;11.536;2023-02-01T18:44:53;3.38;79.14
51878;SHT31;37911;51.526;11.536;2023-02-01T18:47:57;3.36;79.64
51878;SHT31;37911;51.526;11.536;2023-02-01T18:51:01;3.34;79.88
51878;SHT31;37911;51.526;11.536;2023-02-01T18:54:05;3.28;79.85
51878;SHT31;37911;51.526;11.536;2023-02-01T18:57:08;3.24;79.92
51878;SHT31;37911;51.526;11.536;2023-02-01T19:00:19;3.16;80.33
51878;SHT31;37911;51.526;11.536;2023-02-01T19:03:23;3.12;80.91
51878;SHT31;37911;51.526;11.536;2023-02-01T19:06:28;3.07;81.41
51878;SHT31;37911;51.526;11.536;2023-02-01T19:09:32;3.04;81.60
51878;SHT31;37911;51.526;11.536;2023-02-01T19:12:35;3.05;81.76
51878;SHT31;37911;51.526;11.536;2023-02-01T19:15:41;3.00;82.02
51878;SHT31;37911;51.526;11.536;2023-02-01T19:18:49;3.01;82.02
51878;SHT31;37911;51.526;11.536;2023-02-01T19:21:52;3.01;81.94
51878;SHT31;37911;51.526;11.536;2023-02-01T19:24:56;3.01;81.97
51878;SHT31;37911;51.526;11.536;2023-02-01T19:27:59;3.01;81.88
51878;SHT31;37911;51.526;11.536;2023-02-01T19:31:07;3.00;82.15
51878;SHT31;37911;51.526;11.536;2023-02-01T19:34:10;2.95;82.39
51878;SHT31;37911;51.526;11.536;2023-02-01T19:37:13;2.94;82.41
51878;SHT31;37911;51.526;11.536;2023-02-01T19:40:19;2.97;82.49
51878;SHT31;37911;51.526;11.536;2023-02-01T19:43:22;2.90;82.79
51878;SHT31;37911;51.526;11.536;2023-02-01T19:46:28;2.84;83.11
51878;SHT31;37911;51.526;11.536;2023-02-01T19:49:32;2.81;83.16